Time;durP1;ratioP1;P1;durP2;ratioP2;P2;SDS_P1;SDS_P2;PMS_P1;PMS_P2;Temp;Humidity;BMP_temperature;BMP_pressure;BME280_temperature;BME280_humidity;BME280_pressure;Samples;Min_cycle;Max_cycle;Signal;HPM_P1;HPM_P2
2022/03/10 00:00:29;;;;;;;29.00;16.25;;;3.90;80.70;;;;;;4987913;28;20220;-86
2022/03/10 00:02:56;;;;;;;29.67;16.08;;;3.80;80.80;;;;;;4992972;28;20320;-86
2022/03/10 00:05:23;;;;;;;31.75;15.85;;;3.90;81.20;;;;;;4996093;28;20239;-87
2022/03/10 00:07:50;;;;;;;27.60;16.35;;;4.10;81.50;;;;;;4996429;28;20304;-86
2022/03/10 00:10:17;;;;;;;34.17;15.32;;;3.90;81.40;;;;;;4993234;28;20212;-88
2022/03/10 00:12:53;;;;;;;27.95;14.95;;;3.90;82.10;;;;;;4984800;28;20219;-87
2022/03/10 00:15:22;;;;;;;30.85;16.30;;;4.00;82.20;;;;;;4980288;28;20227;-86
2022/03/10 00:17:48;;;;;;;29.65;17.50;;;3.80;83.30;;;;;;4978496;28;20212;-86
2022/03/10 00:20:15;;;;;;;25.35;16.25;;;3.80;83.10;;;;;;4979023;28;20360;-86
2022/03/10 00:22:47;;;;;;;29.17;15.13;;;3.70;83.50;;;;;;4978131;28;20264;-86
2022/03/10 00:25:14;;;;;;;33.92;15.60;;;3.70;83.70;;;;;;4981348;28;20679;-86
2022/03/10 00:27:42;;;;;;;28.23;16.13;;;3.90;83.70;;;;;;4979672;28;20215;-85
2022/03/10 00:30:11;;;;;;;29.50;17.02;;;3.90;83.90;;;;;;4978759;28;20244;-87
2022/03/10 00:32:48;;;;;;;30.13;17.10;;;3.80;84.10;;;;;;4980519;28;20228;-86
2022/03/10 00:35:20;;;;;;;25.23;16.33;;;3.90;84.30;;;;;;4981773;28;20292;-86
2022/03/10 00:37:48;;;;;;;30.60;15.82;;;3.80;84.70;;;;;;4982328;28;20682;-86
2022/03/10 00:40:15;;;;;;;31.30;17.35;;;3.80;85.30;;;;;;4982405;28;20215;-86
2022/03/10 00:42:43;;;;;;;32.78;17.42;;;3.70;85.70;;;;;;4981358;28;20207;-86
2022/03/10 00:45:13;;;;;;;31.05;16.60;;;3.80;85.90;;;;;;4981427;28;20266;-86
2022/03/10 00:47:41;;;;;;;31.15;15.93;;;3.70;86.10;;;;;;4980756;28;20296;-87
2022/03/10 00:50:11;;;;;;;30.25;17.63;;;3.50;86.40;;;;;;4982929;28;20270;-87
2022/03/10 00:52:42;;;;;;;29.00;15.43;;;3.50;86.70;;;;;;4996038;28;20250;-87
2022/03/10 00:55:10;;;;;;;33.95;16.35;;;3.50;87.10;;;;;;4996393;28;20698;-88
2022/03/10 00:57:37;;;;;;;35.38;17.17;;;3.50;87.00;;;;;;4987334;28;20276;-86
2022/03/10 01:00:06;;;;;;;31.35;16.92;;;3.60;87.50;;;;;;4982892;28;20212;-85
2022/03/10 01:02:35;;;;;;;30.45;17.27;;;3.60;87.70;;;;;;4983123;28;20276;-86
2022/03/10 01:05:02;;;;;;;32.92;18.05;;;3.70;88.00;;;;;;4992790;28;20221;-86
2022/03/10 01:07:29;;;;;;;30.30;17.50;;;3.50;87.80;;;;;;4994067;28;20292;-88
2022/03/10 01:09:56;;;;;;;30.88;15.88;;;3.50;88.30;;;;;;4982699;28;20275;-87
2022/03/10 01:12:23;;;;;;;28.15;14.80;;;3.40;89.30;;;;;;4981250;28;20214;-87
2022/03/10 01:14:49;;;;;;;30.30;17.30;;;3.70;88.50;;;;;;4980761;28;20236;-87
2022/03/10 01:17:16;;;;;;;31.08;16.73;;;3.60;88.30;;;;;;4984231;28;20219;-87
2022/03/10 01:19:45;;;;;;;23.13;14.15;;;3.30;88.60;;;;;;4984238;28;20211;-86
2022/03/10 01:22:12;;;;;;;29.98;15.50;;;3.50;89.00;;;;;;4987887;28;20212;-87
2022/03/10 01:24:41;;;;;;;27.85;15.40;;;3.50;88.80;;;;;;4981432;28;20781;-87
2022/03/10 01:27:08;;;;;;;28.90;15.70;;;3.50;88.90;;;;;;4978002;28;20197;-87
2022/03/10 01:29:35;;;;;;;29.65;14.57;;;3.50;89.20;;;;;;4977411;28;20247;-87
2022/03/10 01:32:02;;;;;;;27.00;14.15;;;3.50;89.30;;;;;;4977806;28;20220;-87
2022/03/10 01:34:29;;;;;;;28.65;15.30;;;3.50;89.80;;;;;;4979611;28;20294;-87
2022/03/10 01:36:57;;;;;;;27.77;14.98;;;3.70;89.80;;;;;;4983453;28;20216;-87
2022/03/10 01:39:24;;;;;;;28.10;15.20;;;3.30;89.20;;;;;;4982102;28;20292;-87
2022/03/10 01:41:51;;;;;;;28.88;16.65;;;3.50;90.00;;;;;;4983292;28;20218;-87
2022/03/10 01:44:21;;;;;;;27.23;15.50;;;3.30;90.00;;;;;;4982312;28;20283;-87
2022/03/10 01:46:48;;;;;;;26.38;15.23;;;3.30;90.10;;;;;;4983596;28;20287;-87
2022/03/10 01:49:15;;;;;;;24.95;14.50;;;3.50;90.20;;;;;;4981859;28;20212;-87
2022/03/10 01:51:42;;;;;;;25.88;15.90;;;3.50;90.40;;;;;;4985356;28;20214;-87
2022/03/10 01:54:11;;;;;;;27.35;16.30;;;3.30;90.40;;;;;;4982537;28;20705;-87
2022/03/10 01:56:39;;;;;;;26.50;15.32;;;3.30;90.80;;;;;;4992267;28;20338;-87
2022/03/10 01:59:06;;;;;;;31.73;17.45;;;3.40;90.70;;;;;;4987504;28;20228;-88
2022/03/10 02:01:34;;;;;;;27.80;16.38;;;3.40;90.70;;;;;;4990324;28;20220;-88
2022/03/10 02:04:02;;;;;;;24.38;14.93;;;3.40;90.80;;;;;;4988954;28;20212;-87
2022/03/10 02:06:29;;;;;;;34.38;17.55;;;3.30;90.90;;;;;;4988241;28;20661;-87
2022/03/10 02:11:42;;;;;;;26.17;14.75;;;3.00;91.30;;;;;;4984129;28;20231;-87
2022/03/10 02:19:39;;;;;;;28.70;15.43;;;3.00;91.70;;;;;;4982309;28;20239;-87
2022/03/10 02:22:09;;;;;;;30.85;15.88;;;3.00;91.90;;;;;;5000116;28;20177;-86
2022/03/10 02:24:37;;;;;;;25.17;15.20;;;2.90;92.00;;;;;;5001566;28;20204;-86
2022/03/10 02:27:13;;;;;;;26.98;16.70;;;3.10;92.10;;;;;;5000605;28;20230;-86
2022/03/10 02:29:43;;;;;;;29.42;15.98;;;2.90;92.00;;;;;;5001331;28;20176;-86
2022/03/10 02:32:10;;;;;;;30.33;15.00;;;3.00;92.10;;;;;;5001570;28;20196;-86
2022/03/10 02:34:37;;;;;;;27.63;15.32;;;3.00;92.30;;;;;;5001275;28;20200;-87
2022/03/10 02:37:05;;;;;;;32.60;16.90;;;2.80;92.40;;;;;;4984863;28;20243;-87
2022/03/10 02:39:33;;;;;;;26.80;15.27;;;3.00;92.50;;;;;;4982656;28;20230;-87
2022/03/10 02:42:00;;;;;;;26.58;14.18;;;3.00;92.40;;;;;;4982901;28;20222;-87
2022/03/10 02:44:27;;;;;;;29.42;15.07;;;3.10;92.30;;;;;;4981660;28;20213;-87
2022/03/10 02:46:54;;;;;;;27.92;15.18;;;2.90;92.80;;;;;;4984394;28;20270;-87
2022/03/10 02:49:21;;;;;;;26.17;13.65;;;2.90;92.80;;;;;;4986600;28;20234;-88
2022/03/10 02:51:48;;;;;;;24.58;14.50;;;2.90;92.90;;;;;;4986616;28;20239;-88
2022/03/10 02:54:15;;;;;;;27.77;14.68;;;3.10;92.80;;;;;;4984983;28;20302;-87
2022/03/10 02:56:43;;;;;;;32.72;15.82;;;3.20;92.60;;;;;;4983433;28;20311;-87
2022/03/10 02:59:10;;;;;;;27.00;15.05;;;3.00;92.80;;;;;;4981737;28;20737;-87
2022/03/10 03:01:37;;;;;;;24.30;13.65;;;3.00;92.80;;;;;;4981963;28;20256;-87
2022/03/10 03:04:05;;;;;;;28.42;13.32;;;2.80;93.00;;;;;;4981584;28;20237;-87
2022/03/10 03:06:32;;;;;;;25.33;14.23;;;2.80;93.20;;;;;;4981675;28;20233;-87
2022/03/10 03:08:59;;;;;;;25.95;13.65;;;2.70;93.40;;;;;;4982195;28;20216;-87
2022/03/10 03:11:25;;;;;;;27.05;16.08;;;2.90;93.80;;;;;;4981085;28;20241;-87
2022/03/10 03:13:54;;;;;;;24.48;13.50;;;2.70;93.90;;;;;;4981620;28;20667;-87
2022/03/10 03:16:21;;;;;;;27.45;14.70;;;2.90;94.10;;;;;;4981051;28;20228;-87
2022/03/10 03:18:48;;;;;;;24.88;13.73;;;2.80;93.90;;;;;;4981517;28;20204;-87
2022/03/10 03:21:15;;;;;;;24.05;13.73;;;2.70;93.90;;;;;;4981177;28;20303;-88
2022/03/10 03:23:41;;;;;;;27.35;14.70;;;2.60;93.90;;;;;;4986283;28;20212;-88
2022/03/10 03:26:08;;;;;;;23.67;14.07;;;2.70;94.00;;;;;;5022385;23;20235;-88
2022/03/10 03:28:35;;;;;;;29.40;14.65;;;2.80;93.80;;;;;;4982040;28;20243;-88
2022/03/10 03:31:04;;;;;;;21.90;13.93;;;2.70;93.60;;;;;;4981906;28;20207;-89
2022/03/10 03:33:31;;;;;;;23.80;15.10;;;3.00;93.30;;;;;;4986111;28;20253;-89
2022/03/10 03:35:59;;;;;;;23.00;14.07;;;3.40;93.40;;;;;;4979400;28;20434;-89
2022/03/10 03:38:26;;;;;;;25.63;14.88;;;3.20;93.20;;;;;;4980048;28;20212;-89
2022/03/10 03:40:53;;;;;;;25.75;14.38;;;3.10;93.40;;;;;;4980936;28;20215;-89
2022/03/10 03:43:29;;;;;;;27.25;15.00;;;3.00;93.60;;;;;;4996739;28;20272;-87
2022/03/10 03:45:56;;;;;;;23.13;13.88;;;2.90;93.90;;;;;;4999783;28;20235;-87
2022/03/10 03:48:27;;;;;;;24.65;14.20;;;2.70;93.70;;;;;;4998271;28;20209;-88
2022/03/10 03:50:54;;;;;;;23.98;14.10;;;2.90;93.80;;;;;;4994223;28;20206;-88
2022/03/10 03:53:21;;;;;;;29.90;14.55;;;2.80;93.80;;;;;;4983887;28;20690;-89
2022/03/10 03:55:49;;;;;;;30.15;15.25;;;2.40;93.90;;;;;;4984010;28;20642;-89
2022/03/10 03:58:15;;;;;;;26.40;14.20;;;2.50;94.30;;;;;;4981044;28;20236;-88
2022/03/10 04:00:42;;;;;;;24.17;13.98;;;2.20;94.40;;;;;;4981193;28;20259;-89
2022/03/10 04:03:10;;;;;;;23.20;13.32;;;2.60;94.50;;;;;;4986087;28;20236;-88
2022/03/10 04:05:40;;;;;;;25.30;14.57;;;2.60;94.50;;;;;;4995397;28;20259;-89
2022/03/10 04:08:08;;;;;;;20.77;13.40;;;2.60;94.60;;;;;;4987222;28;20220;-88
2022/03/10 04:10:36;;;;;;;26.73;14.82;;;2.70;94.90;;;;;;4979372;28;20219;-88
2022/03/10 04:13:03;;;;;;;23.98;14.02;;;2.60;95.30;;;;;;4980474;28;20211;-88
2022/03/10 04:15:31;;;;;;;23.63;13.80;;;2.50;95.20;;;;;;4979136;28;20227;-88
2022/03/10 04:17:58;;;;;;;25.55;13.73;;;2.70;95.30;;;;;;4979045;28;20650;-88
2022/03/10 04:20:25;;;;;;;26.80;14.05;;;2.30;95.20;;;;;;4984907;28;20218;-87
2022/03/10 04:22:53;;;;;;;24.33;13.38;;;2.70;95.00;;;;;;4992240;28;20224;-88
2022/03/10 04:25:20;;;;;;;21.83;13.93;;;2.50;95.20;;;;;;4988558;28;20230;-88
2022/03/10 04:27:49;;;;;;;25.85;13.88;;;2.60;95.30;;;;;;4978580;28;20234;-90
2022/03/10 04:30:17;;;;;;;21.42;12.95;;;2.60;95.30;;;;;;4978628;28;20246;-89
2022/03/10 04:32:46;;;;;;;26.95;13.52;;;2.70;95.80;;;;;;4978540;28;20269;-88
2022/03/10 04:35:15;;;;;;;24.00;13.43;;;2.20;95.60;;;;;;4979245;28;20208;-89
2022/03/10 04:37:43;;;;;;;24.45;14.57;;;2.70;95.60;;;;;;4978208;28;20231;-88
2022/03/10 04:40:12;;;;;;;22.45;13.93;;;2.60;95.50;;;;;;4978814;28;20207;-88
2022/03/10 04:42:40;;;;;;;21.25;13.20;;;2.80;95.40;;;;;;4979954;28;20702;-89
2022/03/10 04:45:08;;;;;;;25.42;14.35;;;2.70;95.40;;;;;;4985504;28;20203;-89
2022/03/10 04:47:35;;;;;;;24.13;14.80;;;2.40;95.20;;;;;;4985026;28;20665;-89
2022/03/10 04:50:02;;;;;;;23.77;13.40;;;2.40;95.60;;;;;;4978249;28;20219;-89
2022/03/10 04:52:29;;;;;;;21.33;12.82;;;2.40;96.10;;;;;;4978757;28;20239;-89
2022/03/10 04:54:56;;;;;;;23.48;13.65;;;2.30;96.20;;;;;;4980308;28;20204;-89
2022/03/10 04:57:25;;;;;;;22.08;13.02;;;2.30;96.50;;;;;;4978923;28;20204;-89
2022/03/10 04:59:53;;;;;;;20.63;12.55;;;2.30;97.00;;;;;;4978056;28;20216;-89
2022/03/10 05:02:20;;;;;;;24.63;13.55;;;2.20;97.10;;;;;;4978718;28;20650;-90
2022/03/10 05:04:47;;;;;;;22.67;13.68;;;2.20;97.50;;;;;;4987938;28;20211;-88
2022/03/10 05:07:14;;;;;;;25.55;12.93;;;2.30;97.70;;;;;;4998366;28;20246;-89
2022/03/10 05:09:41;;;;;;;24.92;13.60;;;2.10;97.90;;;;;;4996059;28;20693;-90
2022/03/10 05:12:09;;;;;;;20.90;12.73;;;2.00;98.00;;;;;;4988742;28;20246;-90
2022/03/10 05:14:38;;;;;;;26.52;14.82;;;2.00;98.00;;;;;;4995444;28;20275;-89
2022/03/10 05:17:07;;;;;;;27.33;13.57;;;2.10;97.90;;;;;;4998380;28;20269;-89
2022/03/10 05:19:34;;;;;;;25.00;13.25;;;2.00;97.70;;;;;;4983299;28;20563;-88
2022/03/10 05:22:01;;;;;;;22.15;13.05;;;2.20;98.10;;;;;;4981663;28;20203;-89
2022/03/10 05:24:31;;;;;;;24.25;13.52;;;2.30;98.10;;;;;;4981571;28;20329;-89
2022/03/10 05:27:00;;;;;;;21.95;12.70;;;2.20;98.00;;;;;;4981659;28;20235;-89
2022/03/10 05:29:27;;;;;;;23.52;12.35;;;2.30;97.60;;;;;;4983884;28;20215;-88
2022/03/10 05:31:56;;;;;;;18.52;11.35;;;2.30;97.70;;;;;;4999256;28;20196;-88
2022/03/10 05:34:23;;;;;;;26.15;12.90;;;2.10;97.60;;;;;;4991321;28;20275;-88
2022/03/10 05:36:49;;;;;;;27.48;13.10;;;2.10;97.90;;;;;;4983394;28;20263;-88
2022/03/10 05:39:17;;;;;;;21.30;13.50;;;2.30;98.00;;;;;;4994727;28;20215;-88
2022/03/10 05:41:44;;;;;;;28.98;13.10;;;2.30;97.90;;;;;;4992904;28;20243;-88
2022/03/10 05:44:11;;;;;;;21.38;12.80;;;2.30;98.00;;;;;;4991886;28;20219;-89
2022/03/10 05:46:38;;;;;;;26.45;14.55;;;2.10;97.90;;;;;;4988725;28;20251;-88
2022/03/10 05:49:06;;;;;;;28.40;14.43;;;2.40;98.20;;;;;;4984279;28;20215;-89
2022/03/10 05:51:36;;;;;;;26.30;14.73;;;2.30;98.20;;;;;;4982970;28;20319;-88
2022/03/10 05:54:03;;;;;;;27.63;13.80;;;2.20;97.80;;;;;;4983187;28;20208;-89
2022/03/10 05:56:30;;;;;;;22.92;14.55;;;2.40;97.50;;;;;;4988563;28;20296;-88
2022/03/10 05:58:57;;;;;;;28.38;14.15;;;2.40;97.50;;;;;;4993512;28;20222;-88
2022/03/10 06:01:24;;;;;;;21.77;13.23;;;2.30;98.10;;;;;;4983938;28;20276;-89
2022/03/10 06:03:51;;;;;;;27.13;14.88;;;2.40;98.00;;;;;;4982693;28;20258;-89
2022/03/10 06:06:19;;;;;;;24.77;14.23;;;2.30;98.00;;;;;;4986408;28;20239;-89
2022/03/10 06:08:47;;;;;;;29.10;14.52;;;2.50;97.90;;;;;;4996642;28;20214;-89
2022/03/10 06:11:14;;;;;;;24.50;14.60;;;2.10;98.00;;;;;;4982852;28;20257;-89
2022/03/10 06:13:44;;;;;;;28.20;15.20;;;2.10;98.40;;;;;;4983583;28;20649;-89
2022/03/10 06:16:11;;;;;;;27.80;15.57;;;2.10;98.60;;;;;;4982934;28;20228;-89
2022/03/10 06:18:38;;;;;;;27.23;15.30;;;2.20;98.50;;;;;;4983982;28;20279;-89
2022/03/10 06:21:15;;;;;;;25.15;15.65;;;2.20;98.70;;;;;;4983203;28;20204;-90
2022/03/10 06:23:44;;;;;;;31.67;16.85;;;2.00;98.60;;;;;;4995505;28;20223;-89
2022/03/10 06:26:14;;;;;;;26.63;15.65;;;2.00;98.80;;;;;;5000835;28;20227;-87
2022/03/10 06:28:41;;;;;;;30.08;16.83;;;2.30;99.10;;;;;;5001263;28;20183;-88
2022/03/10 06:31:15;;;;;;;25.88;15.00;;;2.10;99.30;;;;;;5000121;28;20218;-90
2022/03/10 06:33:51;;;;;;;32.03;16.27;;;2.10;99.40;;;;;;4999392;28;20203;-88
2022/03/10 06:36:19;;;;;;;27.00;14.80;;;2.40;99.80;;;;;;4992515;28;20236;-88
2022/03/10 06:38:48;;;;;;;24.67;15.32;;;2.30;99.40;;;;;;4986112;28;20219;-88
2022/03/10 06:41:15;;;;;;;26.15;14.68;;;2.40;98.90;;;;;;4985744;28;20249;-89
2022/03/10 06:43:44;;;;;;;26.40;14.65;;;2.60;98.50;;;;;;4987795;28;20211;-90
2022/03/10 06:48:46;;;;;;;26.63;15.60;;;2.40;98.80;;;;;;5039267;23;20250;-90
2022/03/10 06:51:14;;;;;;;28.73;15.57;;;2.60;98.80;;;;;;4996403;28;20307;-88
2022/03/10 06:53:41;;;;;;;26.50;14.48;;;2.50;98.60;;;;;;4985968;28;20215;-90
2022/03/10 06:56:39;;;;;;;26.00;14.90;;;2.60;98.80;;;;;;4984515;28;20225;-88
2022/03/10 06:59:06;;;;;;;30.17;15.75;;;2.70;98.60;;;;;;4988790;28;20263;-87
2022/03/10 07:10:04;;;;;;;28.60;15.85;;;3.00;97.90;;;;;;4985155;28;20558;-88
2022/03/10 07:15:46;;;;;;;31.70;14.60;;;3.20;97.50;;;;;;4969605;28;20237;-88
2022/03/10 07:18:21;;;;;;;30.58;16.58;;;3.20;96.90;;;;;;4964237;29;20204;-89
2022/03/10 07:20:49;;;;;;;32.03;15.57;;;3.40;96.60;;;;;;4962704;28;20220;-88
2022/03/10 07:23:16;;;;;;;28.73;16.77;;;3.50;96.30;;;;;;4964617;28;20219;-88
2022/03/10 07:25:46;;;;;;;24.00;14.63;;;3.70;96.10;;;;;;4963764;28;20233;-88
2022/03/10 07:28:59;;;;;;;25.60;15.98;;;3.90;95.60;;;;;;4964258;28;20724;-88
2022/03/10 07:31:37;;;;;;;31.45;16.42;;;4.00;95.20;;;;;;4969863;28;20216;-88
2022/03/10 07:37:46;;;;;;;36.88;17.25;;;4.30;94.30;;;;;;4928483;28;20229;-90
2022/03/10 07:46:28;;;;;;;32.50;16.38;;;4.80;94.00;;;;;;4919287;28;20236;-89
2022/03/10 07:53:00;;;;;;;32.22;17.40;;;5.00;93.00;;;;;;4922591;28;20203;-90
2022/03/10 07:55:35;;;;;;;29.98;16.83;;;5.10;92.70;;;;;;4952432;28;20240;-90
2022/03/10 07:58:48;;;;;;;30.17;16.60;;;5.10;92.40;;;;;;4966077;28;20189;-89
2022/03/10 08:05:07;;;;;;;30.77;17.05;;;5.30;92.30;;;;;;4965435;28;20286;-90
2022/03/10 08:18:16;;;;;;;27.30;17.23;;;6.00;90.10;;;;;;4815910;29;20245;-87
2022/03/10 08:21:34;;;;;;;29.63;16.45;;;6.10;89.90;;;;;;4895895;29;20213;-89
2022/03/10 08:31:24;;;;;;;27.93;18.13;;;6.70;87.30;;;;;;4839468;29;20602;-89
2022/03/10 08:34:00;;;;;;;29.02;17.73;;;6.80;86.60;;;;;;4829027;29;20471;-90
2022/03/10 08:37:03;;;;;;;31.67;18.73;;;6.90;86.30;;;;;;4836052;29;20237;-89
2022/03/10 08:39:34;;;;;;;32.40;19.05;;;7.00;85.50;;;;;;4948846;29;20208;-89
2022/03/10 08:42:58;;;;;;;29.95;18.17;;;7.20;85.00;;;;;;4963786;28;20610;-90
2022/03/10 08:46:09;;;;;;;30.60;18.67;;;7.30;84.80;;;;;;4963027;28;20304;-90
2022/03/10 08:52:01;;;;;;;;;;;;;;;;;;;;;
2022/03/10 08:57:29;;;;;;;29.27;16.87;;;7.70;81.50;;;;;;4971410;28;20472;-89
2022/03/10 09:12:45;;;;;;;29.93;19.97;;;8.30;80.30;;;;;;4995065;28;20474;-91
2022/03/10 09:15:58;;;;;;;28.03;17.67;;;8.50;79.70;;;;;;5014508;28;20455;-88
2022/03/10 09:18:55;;;;;;;29.30;17.50;;;8.70;79.50;;;;;;4931815;29;20439;-89
2022/03/10 09:21:33;;;;;;;21.43;14.50;;;8.80;78.60;;;;;;4924184;29;20454;-89
2022/03/10 09:24:07;;;;;;;23.47;14.93;;;9.00;77.00;;;;;;4988001;28;20456;-89
2022/03/10 09:26:35;;;;;;;20.27;14.33;;;9.10;76.90;;;;;;5016566;23;20482;-84
2022/03/10 09:29:02;;;;;;;16.50;10.97;;;9.20;75.80;;;;;;4980729;28;20458;-84
2022/03/10 09:31:29;;;;;;;27.07;16.40;;;9.30;75.90;;;;;;4979582;28;20454;-83
2022/03/10 09:33:56;;;;;;;28.30;12.37;;;9.40;75.30;;;;;;4978929;28;20451;-85
2022/03/10 09:36:23;;;;;;;19.10;12.20;;;9.50;74.70;;;;;;4980085;28;20457;-84
2022/03/10 09:38:49;;;;;;;19.83;9.53;;;9.50;74.10;;;;;;4983366;28;20491;-83
2022/03/10 09:41:17;;;;;;;15.53;7.70;;;9.70;73.50;;;;;;4993430;28;20415;-84
2022/03/10 09:43:48;;;;;;;12.53;7.80;;;9.80;72.00;;;;;;4988615;28;20488;-84
2022/03/10 09:46:15;;;;;;;19.60;8.30;;;10.00;69.60;;;;;;4983277;28;20468;-85
2022/03/10 09:48:42;;;;;;;14.47;8.20;;;10.20;68.90;;;;;;4982750;28;20471;-84
2022/03/10 09:51:10;;;;;;;12.97;9.20;;;10.30;68.50;;;;;;4993538;28;20431;-85
2022/03/10 09:53:37;;;;;;;10.57;7.10;;;10.40;67.60;;;;;;4987741;28;20511;-85
2022/03/10 09:56:05;;;;;;;11.17;7.10;;;10.50;67.00;;;;;;4985136;28;20453;-85
2022/03/10 09:58:33;;;;;;;12.30;7.87;;;10.60;66.30;;;;;;4985155;28;20507;-86
2022/03/10 10:01:02;;;;;;;11.60;7.33;;;10.70;65.90;;;;;;4984131;28;20894;-86
2022/03/10 10:03:29;;;;;;;9.03;6.53;;;10.70;65.20;;;;;;4983872;28;20449;-85
2022/03/10 10:05:59;;;;;;;11.70;7.40;;;10.80;65.00;;;;;;4987008;28;20450;-85
2022/03/10 10:08:26;;;;;;;11.60;7.13;;;11.00;64.30;;;;;;4989796;28;20458;-85
2022/03/10 10:10:56;;;;;;;9.70;6.43;;;11.00;64.40;;;;;;4992843;28;20486;-85
2022/03/10 10:13:27;;;;;;;11.23;7.40;;;11.00;64.00;;;;;;4987686;28;20431;-85
2022/03/10 10:15:56;;;;;;;10.73;8.00;;;11.20;63.80;;;;;;4999106;28;20431;-85
2022/03/10 10:18:25;;;;;;;9.53;6.40;;;11.20;63.30;;;;;;4983595;28;20459;-86
2022/03/10 10:20:54;;;;;;;12.13;7.90;;;11.20;63.10;;;;;;4981786;28;20450;-85
2022/03/10 10:23:23;;;;;;;9.60;6.67;;;11.30;63.40;;;;;;4980635;28;20456;-85
2022/03/10 10:25:56;;;;;;;9.40;6.03;;;11.30;63.20;;;;;;4982268;28;20482;-85
2022/03/10 10:28:31;;;;;;;10.90;6.70;;;11.50;62.60;;;;;;4981486;28;20548;-85
2022/03/10 10:31:03;;;;;;;9.57;6.60;;;11.50;62.70;;;;;;4982268;28;20448;-86
2022/03/10 10:33:34;;;;;;;10.60;6.90;;;11.60;63.00;;;;;;4982558;28;20918;-86
2022/03/10 10:36:15;;;;;;;9.90;6.73;;;11.70;62.40;;;;;;4981920;28;20475;-85
2022/03/10 10:38:43;;;;;;;9.53;6.17;;;11.80;62.10;;;;;;4981838;28;20964;-86
2022/03/10 10:41:21;;;;;;;10.20;6.70;;;11.90;61.50;;;;;;4982268;28;20543;-85
2022/03/10 10:43:50;;;;;;;8.90;5.70;;;12.00;61.70;;;;;;4986635;28;20414;-86
2022/03/10 10:46:25;;;;;;;10.33;6.87;;;12.10;60.90;;;;;;4981588;28;20471;-86
2022/03/10 10:48:53;;;;;;;7.70;5.83;;;12.20;60.70;;;;;;4987815;28;20491;-87
2022/03/10 10:51:29;;;;;;;10.60;6.37;;;12.30;60.10;;;;;;4981250;28;20505;-86
2022/03/10 10:53:56;;;;;;;11.20;6.07;;;12.30;59.90;;;;;;4998924;28;20451;-87
2022/03/10 10:56:24;;;;;;;10.53;6.40;;;12.40;59.40;;;;;;5000001;28;20434;-86
2022/03/10 10:58:52;;;;;;;10.07;6.50;;;12.50;59.20;;;;;;4990153;28;20456;-86
2022/03/10 11:01:30;;;;;;;10.30;6.53;;;12.50;58.90;;;;;;4999220;28;20440;-86
2022/03/10 11:03:58;;;;;;;9.93;6.27;;;12.60;59.00;;;;;;4996550;28;20479;-85
2022/03/10 11:06:25;;;;;;;9.70;7.10;;;12.70;58.70;;;;;;4987475;28;20478;-87
2022/03/10 11:08:53;;;;;;;9.73;6.03;;;12.70;58.40;;;;;;4985320;28;20583;-86
2022/03/10 11:11:21;;;;;;;9.17;5.97;;;12.80;57.90;;;;;;4985935;28;20480;-86
2022/03/10 11:13:48;;;;;;;11.10;6.10;;;12.90;57.40;;;;;;4993595;28;20500;-85
2022/03/10 11:16:16;;;;;;;7.43;5.43;;;12.90;57.00;;;;;;4985104;28;20442;-85
2022/03/10 11:18:50;;;;;;;8.90;6.10;;;13.00;57.00;;;;;;4984675;28;20459;-85
2022/03/10 11:22:01;;;;;;;7.97;4.97;;;13.00;56.20;;;;;;4987100;28;20481;-86
2022/03/10 11:24:49;;;;;;;7.70;4.33;;;13.10;55.80;;;;;;4981186;28;20497;-86
2022/03/10 11:27:19;;;;;;;6.93;4.60;;;13.20;55.30;;;;;;4982718;28;21031;-86
2022/03/10 11:29:49;;;;;;;7.40;4.60;;;13.10;54.50;;;;;;4985301;28;20476;-85
2022/03/10 11:32:16;;;;;;;7.70;4.50;;;13.10;54.40;;;;;;4981751;28;20418;-85
2022/03/10 11:34:48;;;;;;;8.77;4.40;;;13.20;54.20;;;;;;4980483;28;20452;-85
2022/03/10 11:37:35;;;;;;;7.63;4.63;;;13.30;54.00;;;;;;4980722;28;20529;-84
2022/03/10 11:40:05;;;;;;;6.53;3.77;;;13.30;53.50;;;;;;4980907;28;20456;-85
2022/03/10 11:42:33;;;;;;;5.53;3.43;;;13.30;53.50;;;;;;4983333;28;20491;-85
2022/03/10 11:45:07;;;;;;;6.20;3.70;;;13.30;53.30;;;;;;4985321;28;20453;-85
2022/03/10 11:47:36;;;;;;;6.33;4.00;;;13.30;53.00;;;;;;4982205;28;20500;-86
2022/03/10 11:50:28;;;;;;;6.20;3.43;;;13.30;53.00;;;;;;4979574;28;20431;-86
2022/03/10 11:53:00;;;;;;;5.80;3.40;;;13.30;52.60;;;;;;4981575;28;20499;-85
2022/03/10 11:55:40;;;;;;;6.77;4.50;;;13.40;52.30;;;;;;4988359;28;20451;-86
2022/03/10 11:58:08;;;;;;;6.60;3.50;;;13.40;52.10;;;;;;4991036;28;20400;-86
2022/03/10 12:00:52;;;;;;;7.07;3.60;;;13.40;51.40;;;;;;4983438;28;20482;-86
2022/03/10 12:03:21;;;;;;;7.47;3.67;;;13.50;51.50;;;;;;4980844;28;20440;-86
2022/03/10 12:05:55;;;;;;;6.10;3.60;;;13.60;52.00;;;;;;4979771;28;20427;-86
2022/03/10 12:08:29;;;;;;;7.63;3.80;;;13.70;51.50;;;;;;4982615;28;20458;-86
2022/03/10 12:10:56;;;;;;;6.40;3.60;;;13.60;51.10;;;;;;4987830;28;20444;-86
2022/03/10 12:13:30;;;;;;;6.73;3.67;;;13.70;50.60;;;;;;4981764;28;20515;-86
2022/03/10 12:15:58;;;;;;;6.47;4.50;;;13.70;50.20;;;;;;4983057;28;20474;-86
2022/03/10 12:18:29;;;;;;;5.30;3.30;;;13.80;50.60;;;;;;4982836;28;20483;-85
2022/03/10 12:20:58;;;;;;;6.87;3.77;;;13.80;49.70;;;;;;4983060;28;20502;-86
2022/03/10 12:23:29;;;;;;;6.30;3.50;;;13.90;49.20;;;;;;4983796;28;20459;-85
2022/03/10 12:26:00;;;;;;;5.43;3.37;;;13.90;48.80;;;;;;4982959;28;20545;-86
2022/03/10 12:28:31;;;;;;;5.30;3.67;;;13.90;48.80;;;;;;4982632;28;20962;-86
2022/03/10 12:31:07;;;;;;;5.90;3.73;;;13.70;49.10;;;;;;4980952;28;20989;-86
2022/03/10 12:33:36;;;;;;;7.30;3.63;;;13.70;49.50;;;;;;4984821;28;20446;-86
2022/03/10 12:36:03;;;;;;;6.60;3.60;;;13.70;49.10;;;;;;4989621;28;20500;-86
2022/03/10 12:38:45;;;;;;;9.00;3.60;;;13.80;49.30;;;;;;4982529;28;20463;-87
2022/03/10 12:41:14;;;;;;;5.63;3.40;;;13.80;48.80;;;;;;4991816;28;20453;-86
2022/03/10 12:43:42;;;;;;;5.97;3.83;;;13.70;48.30;;;;;;4995562;28;20440;-87
2022/03/10 12:46:09;;;;;;;7.40;4.47;;;13.80;48.40;;;;;;4991280;28;20472;-86
2022/03/10 12:48:57;;;;;;;6.43;4.00;;;13.80;48.50;;;;;;4986422;28;20969;-86
2022/03/10 12:51:26;;;;;;;10.03;4.03;;;13.70;48.40;;;;;;4986065;28;20436;-86
2022/03/10 12:53:55;;;;;;;9.20;4.97;;;13.80;48.50;;;;;;4994077;28;20450;-86
2022/03/10 12:56:22;;;;;;;8.33;4.13;;;13.90;48.60;;;;;;4992958;28;20476;-86
2022/03/10 12:58:51;;;;;;;6.90;4.27;;;14.00;48.30;;;;;;4991828;28;20463;-86
2022/03/10 13:01:22;;;;;;;8.87;4.80;;;14.00;48.30;;;;;;4988736;28;20479;-87
2022/03/10 13:03:51;;;;;;;6.80;4.77;;;14.10;48.10;;;;;;4982546;28;20448;-86
2022/03/10 13:06:21;;;;;;;6.47;4.20;;;14.10;47.70;;;;;;4980858;28;20486;-86
2022/03/10 13:08:55;;;;;;;7.20;5.00;;;14.20;47.80;;;;;;4980065;28;20496;-87
2022/03/10 13:11:24;;;;;;;7.17;4.47;;;14.20;47.90;;;;;;4979158;28;20411;-87
2022/03/10 13:14:05;;;;;;;8.43;5.07;;;14.10;47.70;;;;;;4978950;28;20868;-86
2022/03/10 13:16:36;;;;;;;7.40;4.70;;;14.10;47.20;;;;;;4981425;28;20443;-87
2022/03/10 13:19:05;;;;;;;6.83;4.30;;;14.10;48.00;;;;;;4979602;28;20486;-86
2022/03/10 13:21:32;;;;;;;7.50;4.73;;;14.30;47.20;;;;;;4980820;28;20539;-86
2022/03/10 13:24:00;;;;;;;6.77;4.50;;;14.20;46.90;;;;;;4981014;28;20462;-85
2022/03/10 13:26:28;;;;;;;9.00;4.90;;;14.10;47.10;;;;;;4983809;28;20482;-85
2022/03/10 13:28:55;;;;;;;7.47;4.53;;;14.20;46.40;;;;;;4987829;28;20466;-85
2022/03/10 13:31:30;;;;;;;7.60;4.80;;;14.30;45.50;;;;;;4989924;28;20440;-85
2022/03/10 13:33:59;;;;;;;8.17;4.63;;;14.30;45.60;;;;;;4985311;28;20491;-86
2022/03/10 13:36:27;;;;;;;8.43;5.93;;;14.30;46.00;;;;;;4987310;28;20855;-85
2022/03/10 13:38:58;;;;;;;10.10;5.50;;;14.30;46.10;;;;;;4997033;28;20464;-85
2022/03/10 13:41:26;;;;;;;6.43;4.27;;;14.30;46.30;;;;;;4986589;28;20515;-85
2022/03/10 13:43:53;;;;;;;6.50;4.43;;;14.30;46.00;;;;;;4982032;28;20539;-86
2022/03/10 13:46:23;;;;;;;7.47;4.90;;;14.30;44.60;;;;;;4986586;28;20466;-86
2022/03/10 13:48:51;;;;;;;7.47;5.17;;;14.30;44.20;;;;;;4996728;28;20458;-86
2022/03/10 13:51:22;;;;;;;6.13;4.67;;;14.30;44.30;;;;;;5000539;28;20488;-85
2022/03/10 13:53:56;;;;;;;6.83;4.60;;;14.30;44.40;;;;;;4993625;28;20847;-85
2022/03/10 13:56:33;;;;;;;10.33;5.63;;;14.30;43.40;;;;;;4999800;28;20506;-85
2022/03/10 13:59:02;;;;;;;8.20;4.93;;;14.30;43.50;;;;;;4996177;28;20411;-85
2022/03/10 14:01:29;;;;;;;7.87;5.80;;;14.40;43.00;;;;;;4986971;28;20415;-86
2022/03/10 14:03:56;;;;;;;7.80;4.97;;;14.30;42.90;;;;;;4993645;28;20447;-87
2022/03/10 14:06:24;;;;;;;8.50;5.10;;;14.20;42.80;;;;;;4989086;28;20515;-87
2022/03/10 14:08:52;;;;;;;10.40;6.30;;;14.20;42.30;;;;;;4990497;28;20570;-87
2022/03/10 14:11:22;;;;;;;7.17;4.90;;;14.30;41.90;;;;;;4991703;28;20461;-85
2022/03/10 14:13:51;;;;;;;8.30;4.83;;;14.40;41.60;;;;;;4992330;28;20468;-85